ジャカルタ の空港の天気 - METARとTAF

スカルノハッタ国際空港 ( WIII / CGK ) - インドネシア バンテン州、Cengkareng ( ジャカルタ近郊)
飛行場実況気象(Metar)
観測時間11/18 01:00 WIB (11/17 18:00 UTC)
風向・風速西南西 4m/s
視程6000m
天気現象
少しの雲 雲底高度 610m
気温26℃
湿度84%
気圧1010hPa
METARWIII 171800Z 25008KT 6000 FEW020 26/23 Q1010 NOSIG
過去の天気等 Google飛行場航空写真 Wunderground天気予報

過去48時間のMETAR

飛行場予報(TAF)
発表時間: 11/18 00:00 WIB (11/17 17:00 UTC)
予報対象時間: 18日1時 WIB ~ 19日7時 WIB
風向・風速南西 3m/s
視程10km以上
少しの雲 雲底高度 610m
18日9時 WIB ~ 18日11時 WIB に徐々に
風向・風速北 6m/s
TAF WIII 171700Z 1718/1824 22005KT 9999 FEW020
BECMG 1802/1804 36012KT